Historical Data

TheSutherlands

Weather at Humberside Airport

Current Weather from Humberside Airport

The information displayed on this page is from the METAR reports produced by Humberside Airport. Note that there are times when these are not generated.

Weather Report

Coded Weather Report: 2019/11/13 13:50 EGNJ 131350Z 21006KT 9999 FEW022 07/05 Q0996

Report issued: 2019/11/13 at 13:50 UTC

Wind: light breeze from the southwest (210 degrees) at 6 knots (7 mph, 11 kph, Force 2)
Visibility: 10km or more
Cloud: a few clouds at 2200 feet
Temperature: 7 C
Dewpoint: 5 C
Humidity: 87%
Pressure: 0996 hPa